Dededo, Guam
Current Conditions -  °F | °C
As of 1:54 AM on Thursday 29 Jan 2015 (Local Time) from PGUM Reporting Station
Overcast Overcast  
Wind Chill: 77°   Ceiling: 3700
Heat Index: 78°   Visibility: 10mi
Dew Point: 74°   Wind: 7mph
Humidity: 90%   Direction: 40°NE
Pressure: 29.85"   Gusts: NA
Location:  13.51°N, 144.84°E
Report Text: PGUM 281554Z 04006KT 10SM FEW024 BKN037 OVC060 25/23 A2985 RMK AO2 RAE01 SLP100 P0001 T02500233
Loading
Personal Weather Stations






























Interactive Weather Map New forecast layout! Learn more

10-Day Weather Forecast

Advertisements
Track Severe Weather on mobile